createdAt,value
2018-12-04T00:00:49.939Z,8.91
2018-12-04T00:01:49.934Z,8.84
2018-12-04T00:02:49.928Z,8.82
2018-12-04T00:03:49.923Z,8.84
2018-12-04T00:04:49.916Z,8.88
2018-12-04T00:05:49.912Z,8.88
2018-12-04T00:06:49.906Z,8.87
2018-12-04T00:07:49.900Z,8.89
2018-12-04T00:08:49.900Z,8.85
2018-12-04T00:09:49.890Z,8.84
2018-12-04T00:10:49.882Z,8.85
2018-12-04T00:11:49.876Z,8.85
2018-12-04T00:12:49.872Z,8.85
2018-12-04T00:13:49.867Z,8.88
2018-12-04T00:14:49.860Z,8.81
2018-12-04T00:15:49.856Z,8.88
2018-12-04T00:16:50.000Z,8.84
2018-12-04T00:17:49.843Z,8.91
2018-12-04T00:18:49.837Z,8.89
2018-12-04T00:19:49.833Z,8.84
2018-12-04T00:20:49.826Z,8.89
2018-12-04T00:21:49.824Z,8.81
2018-12-04T00:22:49.815Z,8.81
2018-12-04T00:23:49.810Z,8.79
2018-12-04T00:24:49.803Z,8.85
2018-12-04T00:25:49.798Z,8.82
2018-12-04T00:26:49.791Z,8.81
2018-12-04T00:27:49.786Z,8.88
2018-12-04T00:28:49.781Z,8.87
2018-12-04T00:29:49.774Z,8.81
2018-12-04T00:30:49.769Z,8.94
2018-12-04T00:31:49.763Z,8.79
2018-12-04T00:32:49.755Z,8.82
2018-12-04T00:33:49.756Z,8.85
2018-12-04T00:34:49.744Z,8.89
2018-12-04T00:35:49.738Z,8.82
2018-12-04T00:36:49.734Z,8.88
2018-12-04T00:37:49.727Z,8.84
2018-12-04T00:38:49.722Z,8.78
2018-12-04T00:39:49.716Z,8.79
2018-12-04T00:40:49.711Z,8.71
2018-12-04T00:41:49.703Z,8.76
2018-12-04T00:42:49.699Z,8.84
2018-12-04T00:43:49.692Z,8.78
2018-12-04T00:44:49.686Z,8.82
2018-12-04T00:45:49.680Z,8.74
2018-12-04T00:46:49.674Z,8.73
2018-12-04T00:47:49.716Z,8.76
2018-12-04T00:48:49.662Z,8.84
2018-12-04T00:49:49.656Z,8.78
2018-12-04T00:50:49.649Z,8.64
2018-12-04T00:51:49.645Z,8.69
2018-12-04T00:52:49.639Z,8.69
2018-12-04T00:53:49.633Z,8.78
2018-12-04T00:54:49.627Z,8.66
2018-12-04T00:55:49.621Z,8.81
2018-12-04T00:56:49.617Z,8.81
2018-12-04T00:57:49.610Z,8.67
2018-12-04T00:58:49.602Z,8.82
2018-12-04T00:59:49.598Z,8.69
2018-12-04T01:00:49.592Z,8.66
2018-12-04T01:01:49.587Z,8.64
2018-12-04T01:02:49.582Z,8.69
2018-12-04T01:03:49.574Z,8.71
2018-12-04T01:04:49.569Z,8.66
2018-12-04T01:05:49.564Z,8.58
2018-12-04T01:06:49.556Z,8.55
2018-12-04T01:07:49.550Z,8.48
2018-12-04T01:08:49.588Z,8.46
2018-12-04T01:09:49.541Z,8.45
2018-12-04T01:10:49.532Z,8.44
2018-12-04T01:11:49.527Z,8.44
2018-12-04T01:12:49.523Z,8.48
2018-12-04T01:13:49.514Z,8.46
2018-12-04T01:14:49.507Z,8.38
2018-12-04T01:15:49.503Z,8.48
2018-12-04T01:16:49.498Z,8.45
2018-12-04T01:17:49.492Z,8.46
2018-12-04T01:18:49.484Z,8.45
2018-12-04T01:19:49.478Z,8.45
2018-12-04T01:20:49.472Z,8.41
2018-12-04T01:21:49.472Z,8.37
2018-12-04T01:22:49.460Z,8.45
2018-12-04T01:23:49.453Z,8.46
2018-12-04T01:24:49.447Z,8.60
2018-12-04T01:25:49.442Z,8.45
2018-12-04T01:26:49.436Z,8.56
2018-12-04T01:27:49.429Z,8.52
2018-12-04T01:28:49.424Z,8.49
2018-12-04T01:29:49.417Z,8.51
2018-12-04T01:30:49.411Z,8.44
2018-12-04T01:31:49.404Z,8.53
2018-12-04T01:32:49.399Z,8.60
2018-12-04T01:33:49.393Z,8.44
2018-12-04T01:34:49.385Z,8.44
2018-12-04T01:35:49.379Z,8.41
2018-12-04T01:36:49.945Z,8.42
2018-12-04T01:37:49.369Z,8.48
2018-12-04T01:38:49.364Z,8.49
2018-12-04T01:39:49.357Z,8.48
2018-12-04T01:40:49.350Z,8.48
2018-12-04T01:41:49.344Z,8.55
2018-12-04T01:42:49.337Z,8.49
2018-12-04T01:43:49.339Z,8.45
2018-12-04T01:44:49.327Z,8.48
2018-12-04T01:45:49.320Z,8.49
2018-12-04T01:46:49.312Z,8.46
2018-12-04T01:47:49.307Z,8.45
2018-12-04T01:48:49.302Z,8.46
2018-12-04T01:49:49.296Z,8.42
2018-12-04T01:50:49.289Z,8.49
2018-12-04T01:51:49.284Z,8.60
2018-12-04T01:52:49.277Z,8.53
2018-12-04T01:53:49.272Z,8.53
2018-12-04T01:54:49.266Z,8.52
2018-12-04T01:55:49.258Z,8.55
2018-12-04T01:56:49.253Z,8.51
2018-12-04T01:57:49.247Z,8.49
2018-12-04T01:58:49.245Z,8.53
2018-12-04T01:59:49.234Z,8.53
2018-12-04T02:00:49.228Z,8.53
2018-12-04T02:01:49.231Z,8.61
2018-12-04T02:02:49.218Z,8.52
2018-12-04T02:03:49.213Z,8.53
2018-12-04T02:04:49.204Z,8.51
2018-12-04T02:05:49.199Z,8.55
2018-12-04T02:06:49.195Z,8.48
2018-12-04T02:07:49.189Z,8.51
2018-12-04T02:08:49.180Z,8.53
2018-12-04T02:09:49.176Z,8.49
2018-12-04T02:10:49.172Z,8.55
2018-12-04T02:11:49.163Z,8.51
2018-12-04T02:12:49.160Z,8.46
2018-12-04T02:13:49.151Z,8.51
2018-12-04T02:14:49.143Z,8.52
2018-12-04T02:15:49.137Z,8.60
2018-12-04T02:16:49.131Z,8.61
2018-12-04T02:17:49.126Z,8.46
2018-12-04T02:18:49.119Z,8.52
2018-12-04T02:19:49.113Z,8.55
2018-12-04T02:20:49.107Z,8.56
2018-12-04T02:21:49.103Z,8.51
2018-12-04T02:22:49.095Z,8.46
2018-12-04T02:23:49.089Z,8.46
2018-12-04T02:24:49.081Z,8.49
2018-12-04T02:25:49.078Z,8.51
2018-12-04T02:26:49.069Z,8.51
2018-12-04T02:27:49.063Z,8.46
2018-12-04T02:28:49.057Z,8.51
2018-12-04T02:29:49.052Z,8.51
2018-12-04T02:30:49.045Z,8.48
2018-12-04T02:31:49.043Z,8.45
2018-12-04T02:32:49.036Z,8.53
2018-12-04T02:33:49.029Z,8.55
2018-12-04T02:34:49.022Z,8.52
2018-12-04T02:35:49.015Z,8.56
2018-12-04T02:36:49.012Z,8.51
2018-12-04T02:37:49.005Z,8.49
2018-12-04T02:38:49.000Z,8.49
2018-12-04T02:39:48.993Z,8.45
2018-12-04T02:40:48.986Z,8.52
2018-12-04T02:41:48.983Z,8.56
2018-12-04T02:42:48.975Z,8.46
2018-12-04T02:43:48.968Z,8.49
2018-12-04T02:44:48.964Z,8.48
2018-12-04T02:45:48.958Z,8.52
2018-12-04T02:46:48.950Z,8.58
2018-12-04T02:47:48.944Z,8.48
2018-12-04T02:48:48.939Z,8.55
2018-12-04T02:49:48.933Z,8.49
2018-12-04T02:50:48.927Z,8.46
2018-12-04T02:51:48.920Z,8.56
2018-12-04T02:52:48.917Z,8.48
2018-12-04T02:53:48.908Z,8.46
2018-12-04T02:54:49.007Z,8.46
2018-12-04T02:55:48.899Z,8.46
2018-12-04T02:56:48.891Z,8.55
2018-12-04T02:57:48.887Z,8.56
2018-12-04T02:58:48.878Z,8.44
2018-12-04T02:59:48.873Z,8.42
2018-12-04T03:00:48.867Z,8.45
2018-12-04T03:01:48.863Z,8.45
2018-12-04T03:02:48.853Z,8.45
2018-12-04T03:03:48.849Z,8.45
2018-12-04T03:04:48.847Z,8.46
2018-12-04T03:05:48.836Z,8.46
2018-12-04T03:06:48.843Z,8.44
2018-12-04T03:07:48.825Z,8.38
2018-12-04T03:08:48.819Z,8.42
2018-12-04T03:09:48.812Z,8.45
2018-12-04T03:10:48.806Z,8.42
2018-12-04T03:11:48.801Z,8.41
2018-12-04T03:12:48.797Z,8.37
2018-12-04T03:13:48.790Z,8.28
2018-12-04T03:14:48.783Z,8.28
2018-12-04T03:15:48.780Z,8.30
2018-12-04T03:16:48.771Z,8.33
2018-12-04T03:17:48.766Z,8.26
2018-12-04T03:18:48.759Z,8.30
2018-12-04T03:19:48.753Z,8.26
2018-12-04T03:20:48.749Z,8.33
2018-12-04T03:21:48.742Z,8.28
2018-12-04T03:22:48.736Z,8.36
2018-12-04T03:23:48.731Z,8.34
2018-12-04T03:24:48.724Z,8.38
2018-12-04T03:25:48.719Z,8.36
2018-12-04T03:26:48.715Z,8.34
2018-12-04T03:27:48.706Z,8.26
2018-12-04T03:28:48.699Z,8.27
2018-12-04T03:29:48.701Z,8.28
2018-12-04T03:30:48.688Z,8.38
2018-12-04T03:31:48.683Z,8.33
2018-12-04T03:32:48.676Z,8.30
2018-12-04T03:33:48.670Z,8.33
2018-12-04T03:34:48.663Z,8.31
2018-12-04T03:35:48.658Z,8.37
2018-12-04T03:36:48.651Z,8.30
2018-12-04T03:37:48.646Z,8.30
2018-12-04T03:38:48.638Z,8.31
2018-12-04T03:39:48.638Z,8.34
2018-12-04T03:40:48.627Z,8.30
2018-12-04T03:41:48.620Z,8.36
2018-12-04T03:42:48.617Z,8.33
2018-12-04T03:43:48.611Z,8.13
2018-12-04T03:44:48.604Z,8.24
2018-12-04T03:45:48.597Z,8.20
2018-12-04T03:46:48.590Z,8.18
2018-12-04T03:47:48.585Z,8.16
2018-12-04T03:48:48.577Z,8.09
2018-12-04T03:49:48.572Z,8.08
2018-12-04T03:50:48.567Z,8.00
2018-12-04T03:51:48.567Z,8.05
2018-12-04T03:52:48.556Z,8.01
2018-12-04T03:53:48.553Z,7.97
2018-12-04T03:54:48.539Z,7.79
2018-12-04T03:55:48.535Z,7.90
2018-12-04T03:56:48.529Z,7.87
2018-12-04T03:57:48.522Z,7.80
2018-12-04T03:58:48.514Z,7.82
2018-12-04T03:59:48.513Z,7.83
2018-12-04T04:00:48.504Z,7.79
2018-12-04T04:01:48.498Z,7.76
2018-12-04T04:02:48.490Z,7.79
2018-12-04T04:03:48.485Z,7.67
2018-12-04T04:04:48.477Z,7.77
2018-12-04T04:05:48.474Z,7.79
2018-12-04T04:06:48.464Z,7.75
2018-12-04T04:07:48.459Z,7.76
2018-12-04T04:08:48.452Z,7.70
2018-12-04T04:09:48.447Z,7.67
2018-12-04T04:10:48.439Z,7.58
2018-12-04T04:11:48.431Z,7.63
2018-12-04T04:12:48.427Z,7.60
2018-12-04T04:13:48.420Z,7.60
2018-12-04T04:14:48.413Z,7.53
2018-12-04T04:15:48.407Z,7.51
2018-12-04T04:16:48.400Z,7.53
2018-12-04T04:17:48.395Z,7.43
2018-12-04T04:18:48.386Z,7.32
2018-12-04T04:19:48.384Z,7.36
2018-12-04T04:20:48.724Z,7.40
2018-12-04T04:21:48.371Z,7.25
2018-12-04T04:22:48.361Z,7.24
2018-12-04T04:23:48.355Z,7.20
2018-12-04T04:24:48.350Z,7.25
2018-12-04T04:25:48.342Z,7.24
2018-12-04T04:26:48.334Z,7.29
2018-12-04T04:27:48.329Z,7.21
2018-12-04T04:28:48.323Z,7.23
2018-12-04T04:29:48.317Z,7.20
2018-12-04T04:30:48.308Z,7.17
2018-12-04T04:31:48.303Z,7.21
2018-12-04T04:32:48.296Z,7.18
2018-12-04T04:33:48.291Z,7.17
2018-12-04T04:34:48.283Z,7.06
2018-12-04T04:35:48.275Z,7.13
2018-12-04T04:36:48.270Z,7.14
2018-12-04T04:37:48.265Z,6.96
2018-12-04T04:38:48.259Z,7.02
2018-12-04T04:39:48.250Z,7.11
2018-12-04T04:40:48.243Z,7.06
2018-12-04T04:41:48.237Z,7.03
2018-12-04T04:42:48.231Z,7.07
2018-12-04T04:43:48.223Z,7.02
2018-12-04T04:44:48.217Z,7.07
2018-12-04T04:45:48.211Z,6.95
2018-12-04T04:46:48.205Z,7.07
2018-12-04T04:47:48.196Z,6.87
2018-12-04T04:48:48.192Z,6.97
2018-12-04T04:49:48.190Z,6.95
2018-12-04T04:50:48.179Z,6.89
2018-12-04T04:51:48.170Z,6.87
2018-12-04T04:52:48.165Z,6.82
2018-12-04T04:53:48.157Z,6.89
2018-12-04T04:54:48.150Z,6.84
2018-12-04T04:55:48.142Z,6.72
2018-12-04T04:56:48.135Z,6.79
2018-12-04T04:57:48.129Z,6.69
2018-12-04T04:58:48.124Z,6.75
2018-12-04T04:59:48.116Z,6.67
2018-12-04T05:00:48.109Z,6.69
2018-12-04T05:01:48.103Z,6.66
2018-12-04T05:02:48.095Z,6.67
2018-12-04T05:03:48.091Z,6.72
2018-12-04T05:04:48.080Z,6.69
2018-12-04T05:05:48.075Z,6.69
2018-12-04T05:06:48.070Z,6.75
2018-12-04T05:07:48.061Z,6.69
2018-12-04T05:08:48.054Z,6.52
2018-12-04T05:09:48.050Z,6.69
2018-12-04T05:10:48.039Z,6.64
2018-12-04T05:11:48.034Z,6.62
2018-12-04T05:12:48.027Z,6.54
2018-12-04T05:13:48.021Z,6.52
2018-12-04T05:14:48.014Z,6.62
2018-12-04T05:15:48.008Z,6.51
2018-12-04T05:16:47.999Z,6.60
2018-12-04T05:17:47.994Z,6.49
2018-12-04T05:18:47.986Z,6.56
2018-12-04T05:19:47.979Z,6.59
2018-12-04T05:20:47.971Z,6.54
2018-12-04T05:21:47.965Z,6.59
2018-12-04T05:22:47.959Z,6.52
2018-12-04T05:23:47.952Z,6.49
2018-12-04T05:24:47.943Z,6.44
2018-12-04T05:25:47.940Z,6.48
2018-12-04T05:26:47.930Z,6.56
2018-12-04T05:27:47.923Z,6.42
2018-12-04T05:28:47.916Z,6.48
2018-12-04T05:29:47.909Z,6.41
2018-12-04T05:30:47.902Z,6.41
2018-12-04T05:31:47.895Z,6.45
2018-12-04T05:32:47.888Z,6.31
2018-12-04T05:33:47.883Z,6.35
2018-12-04T05:34:47.874Z,6.36
2018-12-04T05:35:47.867Z,6.31
2018-12-04T05:36:47.861Z,6.30
2018-12-04T05:37:47.853Z,6.31
2018-12-04T05:38:47.845Z,6.19
2018-12-04T05:39:47.839Z,6.26
2018-12-04T05:40:47.832Z,6.24
2018-12-04T05:41:47.825Z,6.22
2018-12-04T05:42:47.817Z,6.22
2018-12-04T05:43:47.811Z,6.27
2018-12-04T05:44:47.805Z,6.17
2018-12-04T05:45:47.797Z,6.28
2018-12-04T05:46:47.789Z,6.20
2018-12-04T05:47:47.785Z,6.09
2018-12-04T05:48:47.775Z,6.20
2018-12-04T05:49:47.768Z,6.14
2018-12-04T05:50:47.761Z,6.17
2018-12-04T05:51:47.755Z,6.19
2018-12-04T05:52:47.747Z,6.12
2018-12-04T05:53:47.741Z,6.16
2018-12-04T05:54:47.732Z,6.12
2018-12-04T05:55:47.726Z,6.04
2018-12-04T05:56:47.721Z,5.98
2018-12-04T05:57:47.714Z,6.07
2018-12-04T05:58:47.705Z,6.01
2018-12-04T05:59:47.699Z,6.04
2018-12-04T06:00:47.690Z,5.98
2018-12-04T06:01:47.685Z,5.93
2018-12-04T06:02:47.676Z,5.91
2018-12-04T06:03:47.668Z,5.91
2018-12-04T06:04:47.663Z,5.87
2018-12-04T06:05:47.655Z,5.93
2018-12-04T06:06:47.648Z,5.89
2018-12-04T06:07:47.640Z,5.84
2018-12-04T06:08:47.636Z,5.80
2018-12-04T06:09:47.627Z,5.87
2018-12-04T06:10:48.762Z,5.82
2018-12-04T06:11:47.613Z,5.82
2018-12-04T06:12:47.606Z,5.80
2018-12-04T06:13:47.600Z,5.76
2018-12-04T06:14:47.591Z,5.75
2018-12-04T06:15:47.583Z,5.76
2018-12-04T06:16:47.577Z,5.80
2018-12-04T06:17:47.574Z,5.86
2018-12-04T06:18:47.562Z,5.80
2018-12-04T06:19:47.557Z,5.86
2018-12-04T06:20:47.553Z,5.90
2018-12-04T06:21:47.541Z,5.86
2018-12-04T06:22:47.533Z,5.97
2018-12-04T06:23:47.527Z,5.94
2018-12-04T06:24:47.523Z,5.89
2018-12-04T06:25:47.512Z,5.91
2018-12-04T06:26:47.509Z,5.90
2018-12-04T06:27:47.497Z,5.93
2018-12-04T06:28:47.493Z,6.07
2018-12-04T06:29:47.483Z,5.97
2018-12-04T06:30:47.475Z,6.01
2018-12-04T06:31:47.470Z,5.94
2018-12-04T06:32:47.462Z,6.11
2018-12-04T06:33:47.455Z,6.12
2018-12-04T06:34:47.452Z,6.11
2018-12-04T06:35:47.443Z,6.16
2018-12-04T06:36:47.433Z,6.20
2018-12-04T06:37:47.426Z,6.11
2018-12-04T06:38:47.418Z,6.02
2018-12-04T06:39:47.416Z,5.97
2018-12-04T06:40:47.404Z,6.01
2018-12-04T06:41:47.400Z,5.97
2018-12-04T06:42:47.391Z,6.02
2018-12-04T06:43:47.383Z,5.97
2018-12-04T06:44:47.376Z,5.98
2018-12-04T06:45:47.370Z,6.01
2018-12-04T06:46:47.362Z,6.07
2018-12-04T06:47:47.359Z,6.02
2018-12-04T06:48:47.348Z,6.05
2018-12-04T06:49:47.341Z,6.02
2018-12-04T06:50:47.333Z,5.99
2018-12-04T06:51:47.326Z,6.05
2018-12-04T06:52:47.323Z,6.04
2018-12-04T06:53:47.313Z,5.97
2018-12-04T06:54:47.307Z,5.99
2018-12-04T06:55:47.298Z,6.05
2018-12-04T06:56:47.290Z,5.99
2018-12-04T06:57:47.285Z,6.05
2018-12-04T06:58:47.276Z,6.02
2018-12-04T06:59:47.268Z,6.09
2018-12-04T07:00:47.268Z,6.09
2018-12-04T07:01:47.258Z,6.17
2018-12-04T07:02:47.246Z,6.01
2018-12-04T07:03:47.239Z,6.01
2018-12-04T07:04:47.232Z,5.99
2018-12-04T07:05:47.225Z,5.99
2018-12-04T07:06:47.219Z,5.89
2018-12-04T07:07:47.210Z,5.98
2018-12-04T07:08:47.206Z,5.90
2018-12-04T07:09:47.195Z,5.94
2018-12-04T07:10:47.187Z,6.07
2018-12-04T07:11:47.180Z,6.07
2018-12-04T07:12:47.174Z,6.24
2018-12-04T07:13:47.167Z,6.14
2018-12-04T07:14:47.158Z,6.12
2018-12-04T07:15:47.151Z,6.08
2018-12-04T07:16:47.144Z,6.19
2018-12-04T07:17:47.138Z,6.30
2018-12-04T07:18:47.130Z,6.17
2018-12-04T07:19:47.123Z,6.17
2018-12-04T07:20:47.116Z,6.07
2018-12-04T07:21:47.109Z,6.09
2018-12-04T07:22:47.100Z,6.08
2018-12-04T07:23:47.094Z,6.01
2018-12-04T07:24:47.086Z,6.08
2018-12-04T07:25:47.078Z,6.11
2018-12-04T07:26:47.069Z,5.99
2018-12-04T07:27:47.063Z,5.99
2018-12-04T07:28:47.056Z,5.94
2018-12-04T07:29:47.051Z,5.94
2018-12-04T07:30:47.046Z,5.94
2018-12-04T07:31:47.040Z,5.98
2018-12-04T07:32:47.027Z,5.94
2018-12-04T07:33:47.027Z,5.94
2018-12-04T07:34:47.012Z,5.97
2018-12-04T07:35:47.008Z,5.91
2018-12-04T07:36:46.998Z,5.90
2018-12-04T07:37:46.991Z,5.86
2018-12-04T07:38:46.983Z,5.82
2018-12-04T07:39:46.978Z,5.83
2018-12-04T07:40:46.968Z,5.82
2018-12-04T07:41:46.961Z,5.76
2018-12-04T07:42:46.961Z,5.80
2018-12-04T07:43:46.946Z,5.73
2018-12-04T07:44:46.940Z,5.80
2018-12-04T07:45:46.932Z,5.86
2018-12-04T07:46:46.923Z,5.83
2018-12-04T07:47:46.917Z,5.73
2018-12-04T07:48:46.910Z,5.73
2018-12-04T07:49:46.903Z,5.72
2018-12-04T07:50:46.896Z,5.72
2018-12-04T07:51:46.888Z,5.71
2018-12-04T07:52:46.880Z,5.64
2018-12-04T07:53:46.875Z,5.62
2018-12-04T07:54:46.867Z,5.64
2018-12-04T07:55:46.857Z,5.65
2018-12-04T07:56:46.851Z,5.57
2018-12-04T07:57:46.842Z,5.68
2018-12-04T07:58:46.834Z,5.75
2018-12-04T07:59:46.827Z,5.72
2018-12-04T08:00:46.822Z,5.73
2018-12-04T08:01:46.814Z,5.75
2018-12-04T08:02:46.804Z,5.69
2018-12-04T08:03:46.799Z,5.65
2018-12-04T08:04:46.792Z,5.76
2018-12-04T08:05:46.784Z,5.86
2018-12-04T08:06:46.776Z,5.80
2018-12-04T08:07:46.767Z,5.76
2018-12-04T08:08:46.762Z,5.79
2018-12-04T08:09:46.754Z,5.83
2018-12-04T08:10:46.747Z,5.83
2018-12-04T08:11:46.740Z,5.86
2018-12-04T08:12:46.732Z,5.84
2018-12-04T08:13:46.724Z,5.90
2018-12-04T08:14:46.718Z,5.97
2018-12-04T08:15:46.717Z,5.86
2018-12-04T08:16:46.702Z,5.97
2018-12-04T08:17:46.699Z,6.05
2018-12-04T08:18:46.687Z,5.99
2018-12-04T08:19:46.680Z,5.99
2018-12-04T08:20:46.673Z,6.07
2018-12-04T08:21:46.666Z,6.12
2018-12-04T08:22:46.660Z,6.05
2018-12-04T08:23:46.651Z,6.16
2018-12-04T08:24:46.644Z,6.20
2018-12-04T08:25:46.640Z,6.28
2018-12-04T08:26:46.627Z,6.28
2018-12-04T08:27:46.622Z,6.33
2018-12-04T08:28:46.614Z,6.36
2018-12-04T08:29:46.607Z,6.30
2018-12-04T08:30:46.598Z,6.26
2018-12-04T08:31:46.591Z,6.28
2018-12-04T08:32:46.585Z,6.24
2018-12-04T08:33:46.577Z,6.30
2018-12-04T08:34:46.569Z,6.38
2018-12-04T08:35:46.563Z,6.38
2018-12-04T08:36:46.555Z,6.35
2018-12-04T08:37:46.548Z,6.31
2018-12-04T08:38:46.541Z,6.26
2018-12-04T08:39:46.533Z,6.28
2018-12-04T08:40:46.525Z,6.28
2018-12-04T08:41:46.518Z,6.27
2018-12-04T08:42:46.513Z,6.24
2018-12-04T08:43:46.511Z,6.30
2018-12-04T08:44:46.499Z,6.36
2018-12-04T08:45:46.491Z,6.42
2018-12-04T08:46:46.482Z,6.36
2018-12-04T08:47:46.476Z,6.36
2018-12-04T08:48:46.469Z,6.35
2018-12-04T08:49:46.462Z,6.35
2018-12-04T08:50:46.454Z,6.38
2018-12-04T08:51:46.447Z,6.36
2018-12-04T08:52:46.442Z,6.45
2018-12-04T08:53:46.432Z,6.44
2018-12-04T08:54:46.425Z,6.52
2018-12-04T08:55:46.419Z,6.45
2018-12-04T08:56:46.416Z,6.62
2018-12-04T08:57:46.404Z,6.54
2018-12-04T08:58:46.397Z,6.62
2018-12-04T08:59:46.391Z,6.57
2018-12-04T09:00:46.383Z,6.67
2018-12-04T09:01:46.376Z,6.64
2018-12-04T09:02:46.370Z,6.64
2018-12-04T09:03:46.359Z,6.74
2018-12-04T09:04:46.354Z,6.67
2018-12-04T09:05:46.345Z,6.69
2018-12-04T09:06:46.366Z,6.62
2018-12-04T09:07:46.332Z,6.72
2018-12-04T09:08:46.342Z,6.72
2018-12-04T09:09:46.320Z,6.79
2018-12-04T09:10:46.312Z,6.77
2018-12-04T09:11:46.305Z,6.72
2018-12-04T09:12:46.297Z,6.84
2018-12-04T09:13:46.290Z,6.84
2018-12-04T09:14:46.284Z,6.84
2018-12-04T09:15:46.275Z,6.92
2018-12-04T09:16:46.797Z,6.92
2018-12-04T09:17:46.262Z,6.92
2018-12-04T09:18:46.296Z,7.06
2018-12-04T09:19:46.281Z,7.21
2018-12-04T09:20:46.262Z,7.14
2018-12-04T09:21:46.264Z,7.14
2018-12-04T09:22:46.274Z,7.10
2018-12-04T09:23:46.222Z,7.18
2018-12-04T09:24:46.265Z,7.20
2018-12-04T09:25:46.206Z,7.38
2018-12-04T09:26:46.197Z,7.56
2018-12-04T09:27:46.239Z,7.53
2018-12-04T09:28:46.185Z,7.54
2018-12-04T09:29:46.184Z,7.54
2018-12-04T09:30:46.170Z,7.54
2018-12-04T09:31:46.166Z,7.54
2018-12-04T09:32:46.156Z,7.61
2018-12-04T09:33:46.151Z,7.60
2018-12-04T09:34:46.143Z,7.75
2018-12-04T09:35:46.135Z,7.76
2018-12-04T09:36:46.129Z,7.69
2018-12-04T09:37:46.124Z,7.82
2018-12-04T09:38:46.115Z,7.76
2018-12-04T09:39:46.109Z,7.83
2018-12-04T09:40:46.104Z,7.70
2018-12-04T09:41:46.097Z,7.79
2018-12-04T09:42:46.091Z,7.72
2018-12-04T09:43:46.085Z,7.77
2018-12-04T09:44:46.077Z,7.82
2018-12-04T09:45:46.070Z,8.10
2018-12-04T09:46:46.063Z,8.23
2018-12-04T09:47:46.057Z,8.30
2018-12-04T09:48:46.051Z,8.34
2018-12-04T09:49:46.044Z,8.41
2018-12-04T09:50:46.037Z,8.15
2018-12-04T09:51:46.030Z,8.23
2018-12-04T09:52:46.024Z,8.37
2018-12-04T09:53:51.801Z,8.52
2018-12-04T09:54:46.014Z,8.53
2018-12-04T09:55:46.004Z,8.53
2018-12-04T09:56:45.997Z,8.31
2018-12-04T09:57:45.993Z,8.26
2018-12-04T09:58:45.988Z,8.26
2018-12-04T09:59:45.979Z,8.28
2018-12-04T10:00:45.972Z,8.23
2018-12-04T10:01:45.968Z,8.31
2018-12-04T10:02:45.960Z,8.20
2018-12-04T10:03:45.953Z,8.27
2018-12-04T10:04:45.948Z,8.18
2018-12-04T10:05:45.941Z,8.06
2018-12-04T10:06:45.933Z,8.16
2018-12-04T10:07:45.928Z,8.20
2018-12-04T10:08:45.922Z,8.03
2018-12-04T10:09:45.917Z,8.09
2018-12-04T10:10:45.912Z,8.23
2018-12-04T10:11:45.904Z,8.23
2018-12-04T10:12:45.917Z,8.20
2018-12-04T10:13:45.893Z,8.45
2018-12-04T10:14:45.889Z,8.58
2018-12-04T10:15:45.878Z,8.73
2018-12-04T10:16:45.873Z,8.82
2018-12-04T10:17:45.867Z,8.64
2018-12-04T10:18:47.808Z,8.79
2018-12-04T10:19:45.853Z,8.87
2018-12-04T10:20:45.846Z,8.61
2018-12-04T10:21:45.839Z,8.61
2018-12-04T10:22:45.833Z,8.87
2018-12-04T10:23:45.827Z,8.84
2018-12-04T10:24:45.821Z,8.97
2018-12-04T10:25:45.816Z,8.92
2018-12-04T10:26:45.807Z,8.95
2018-12-04T10:27:45.801Z,8.71
2018-12-04T10:28:45.795Z,8.78
2018-12-04T10:29:45.789Z,8.67
2018-12-04T10:30:45.784Z,8.69
2018-12-04T10:31:45.776Z,8.82
2018-12-04T10:32:45.770Z,8.84
2018-12-04T10:33:45.765Z,8.91
2018-12-04T10:34:45.757Z,9.10
2018-12-04T10:35:45.753Z,9.26
2018-12-04T10:36:45.751Z,9.51
2018-12-04T10:37:45.742Z,10.07
2018-12-04T10:38:45.734Z,10.74
2018-12-04T10:39:45.729Z,11.30
2018-12-04T10:40:45.725Z,10.93
2018-12-04T10:41:45.720Z,10.67
2018-12-04T10:42:45.715Z,10.61
2018-12-04T10:43:45.710Z,10.94
2018-12-04T10:44:45.705Z,11.04
2018-12-04T10:45:45.701Z,11.77
2018-12-04T10:46:45.694Z,11.60
2018-12-04T10:47:45.691Z,12.00
2018-12-04T10:48:45.687Z,11.99
2018-12-04T10:49:45.683Z,12.17
2018-12-04T10:50:45.678Z,11.81
2018-12-04T10:51:45.675Z,11.80
2018-12-04T10:52:45.669Z,12.37
2018-12-04T10:53:45.667Z,12.04
2018-12-04T10:54:45.661Z,12.10
2018-12-04T10:55:45.659Z,12.02
2018-12-04T10:56:45.655Z,11.80
2018-12-04T10:57:45.652Z,11.75
2018-12-04T10:58:45.649Z,11.84
2018-12-04T10:59:45.645Z,11.91
2018-12-04T11:00:45.642Z,11.70
2018-12-04T11:01:45.641Z,11.62
2018-12-04T11:02:45.635Z,11.35
2018-12-04T11:03:45.635Z,10.75
2018-12-04T11:04:45.630Z,10.93
2018-12-04T11:05:45.627Z,11.22
2018-12-04T11:06:45.623Z,11.50
2018-12-04T11:07:45.620Z,11.08
2018-12-04T11:08:45.619Z,11.17
2018-12-04T11:09:45.615Z,11.12
2018-12-04T11:10:45.611Z,11.10
2018-12-04T11:11:45.608Z,10.97
2018-12-04T11:12:45.608Z,10.87
2018-12-04T11:13:45.604Z,10.69
2018-12-04T11:14:45.598Z,10.71
2018-12-04T11:15:45.596Z,11.17
2018-12-04T11:16:45.591Z,11.15
2018-12-04T11:17:45.588Z,11.07
2018-12-04T11:18:45.583Z,10.96
2018-12-04T11:19:45.594Z,10.86
2018-12-04T11:20:45.580Z,10.61
2018-12-04T11:21:45.574Z,10.74
2018-12-04T11:22:45.573Z,10.90
2018-12-04T11:23:45.567Z,10.75
2018-12-04T11:24:45.565Z,10.60
2018-12-04T11:25:45.562Z,10.13
2018-12-04T11:26:45.556Z,9.92
2018-12-04T11:27:45.553Z,9.84
2018-12-04T11:28:45.550Z,9.84
2018-12-04T11:29:45.548Z,9.59
2018-12-04T11:30:45.543Z,9.65
2018-12-04T11:31:45.539Z,9.76
2018-12-04T11:32:45.534Z,9.73
2018-12-04T11:33:45.532Z,10.16
2018-12-04T11:34:45.535Z,10.02
2018-12-04T11:35:45.525Z,10.04
2018-12-04T11:36:45.521Z,10.19
2018-12-04T11:37:45.519Z,10.01
2018-12-04T11:38:45.511Z,9.99
2018-12-04T11:39:45.507Z,10.15
2018-12-04T11:40:45.503Z,10.60
2018-12-04T11:41:45.500Z,10.84
2018-12-04T11:42:45.497Z,10.68
2018-12-04T11:43:45.491Z,10.67
2018-12-04T11:44:45.488Z,10.60
2018-12-04T11:45:45.484Z,10.13
2018-12-04T11:46:45.476Z,9.80
2018-12-04T11:47:45.473Z,9.68
2018-12-04T11:48:45.473Z,9.77
2018-12-04T11:49:45.465Z,9.76
2018-12-04T11:50:45.460Z,9.91
2018-12-04T11:51:45.455Z,10.05
2018-12-04T11:52:45.450Z,10.01
2018-12-04T11:53:45.446Z,9.80
2018-12-04T11:54:45.444Z,9.69
2018-12-04T11:55:45.438Z,9.65
2018-12-04T11:56:45.436Z,9.58
2018-12-04T11:57:45.429Z,9.62
2018-12-04T11:58:45.424Z,9.54
2018-12-04T11:59:45.419Z,9.34
2018-12-04T12:00:45.414Z,9.50
2018-12-04T12:01:45.409Z,9.41
2018-12-04T12:02:45.403Z,9.43
2018-12-04T12:03:45.400Z,9.43
2018-12-04T12:04:45.395Z,9.48
2018-12-04T12:05:45.392Z,9.41
2018-12-04T12:06:45.387Z,9.47
2018-12-04T12:07:45.380Z,9.44
2018-12-04T12:08:45.374Z,9.41
2018-12-04T12:09:45.370Z,9.41
2018-12-04T12:10:45.364Z,9.40
2018-12-04T12:11:45.360Z,9.26
2018-12-04T12:12:45.354Z,9.37
2018-12-04T12:13:45.350Z,9.28
2018-12-04T12:14:45.343Z,9.29
2018-12-04T12:15:45.339Z,9.31
2018-12-04T12:16:45.337Z,9.29
2018-12-04T12:17:45.329Z,9.29
2018-12-04T12:18:45.327Z,9.34
2018-12-04T12:19:45.318Z,9.31
2018-12-04T12:20:45.314Z,9.28
2018-12-04T12:21:45.308Z,9.25
2018-12-04T12:22:45.302Z,9.32
2018-12-04T12:23:45.296Z,9.31
2018-12-04T12:24:45.293Z,9.25
2018-12-04T12:25:45.286Z,9.37
2018-12-04T12:26:45.280Z,9.39
2018-12-04T12:27:45.276Z,9.64
2018-12-04T12:28:45.270Z,9.56
2018-12-04T12:29:45.266Z,9.55
2018-12-04T12:30:45.258Z,9.50
2018-12-04T12:31:45.256Z,9.50
2018-12-04T12:32:45.249Z,9.44
2018-12-04T12:33:45.247Z,9.54
2018-12-04T12:34:45.243Z,9.55
2018-12-04T12:35:45.233Z,9.55
2018-12-04T12:36:45.227Z,9.72
2018-12-04T12:37:45.222Z,9.87
2018-12-04T12:38:45.216Z,9.73
2018-12-04T12:39:45.212Z,9.68
2018-12-04T12:40:45.206Z,9.58
2018-12-04T12:41:45.205Z,9.54
2018-12-04T12:42:45.195Z,9.44
2018-12-04T12:43:45.190Z,9.41
2018-12-04T12:44:45.185Z,9.47
2018-12-04T12:45:45.180Z,9.31
2018-12-04T12:46:45.173Z,9.29
2018-12-04T12:47:45.167Z,9.32
2018-12-04T12:48:45.161Z,9.26
2018-12-04T12:49:45.156Z,9.28
2018-12-04T12:50:45.150Z,9.28
2018-12-04T12:51:45.146Z,9.29
2018-12-04T12:52:45.140Z,9.34
2018-12-04T12:53:45.136Z,9.32
2018-12-04T12:54:45.129Z,9.23
2018-12-04T12:55:45.123Z,9.26
2018-12-04T12:56:45.119Z,9.32
2018-12-04T12:57:45.112Z,9.25
2018-12-04T12:58:45.108Z,9.26
2018-12-04T12:59:45.100Z,9.31
2018-12-04T13:00:45.099Z,9.46
2018-12-04T13:01:45.096Z,9.34
2018-12-04T13:02:45.090Z,9.37
2018-12-04T13:03:45.078Z,9.41
2018-12-04T13:04:45.081Z,9.39
2018-12-04T13:05:45.088Z,9.32
2018-12-04T13:06:45.063Z,9.58
2018-12-04T13:07:45.057Z,9.65
2018-12-04T13:08:45.051Z,9.62
2018-12-04T13:09:45.047Z,9.62
2018-12-04T13:10:45.048Z,9.58
2018-12-04T13:11:45.035Z,9.54
2018-12-04T13:12:45.028Z,9.54
2018-12-04T13:13:45.023Z,9.62
2018-12-04T13:14:45.017Z,9.61
2018-12-04T13:15:45.027Z,9.69
2018-12-04T13:16:45.007Z,9.62